Terminal Aerodrome Forecast
Issued by NWS Quad Cities IA IL

Home | Current Version | Previous Version | Text Only | Print | Product List | Glossary On
Versions: 1 2 3 4 5 6 7 8 9 10 11 12 13 14 15 16 17 18 19 20 21 22 23 24 25
068
FTUS43 KDVN 181019 AAD
TAFMLI
TAF AMD
KMLI 181019Z 1810/1906 VRB04KT 4SM BR SCT250
      TEMPO 1810/1812 1/2SM FZFG BKN004
     FM181300 15007KT 2SM BR SCT120
     FM181500 17013G20KT P6SM BKN150=

USA.gov is the U.S. government's official web portal to all federal, state and local government web resources and services.